LFBD/BOD METAR and TAF weather

Enter ICAO airport designator
Station Type Date Time Source
LFBD METAR 2018/12/17 02:30 UTC NOAA

LFBD 170230Z AUTO 22004KT 9999 FEW030 BKN180 OVC210 07/06 Q1023 TEMPO 24015G25KT 4000 -SHRA BKN015TCU


Station Type Date Time Source
LFBD Decoded METAR 2018/12/17 02:30 UTC NOAA

Bordeaux / Merignac, France (LFBD) 44-50N 000-42W 61M
Dec 16, 2018 - 09:30 PM EST / 2018.12.17 0230 UTC
Wind: from the SW (220 degrees) at 5 MPH (4 KT):0
Visibility: greater than 7 mile(s):0
Sky conditions: overcast
Weather: Towering cumulus clouds observed
Temperature: 44 F (7 C)
Dew Point: 42 F (6 C)
Relative Humidity: 93%
Pressure (altimeter): 30.21 in. Hg (1023 hPa)
ob: LFBD 170230Z AUTO 22004KT 9999 FEW030 BKN180 OVC210 07/06 Q1023 TEMPO 24015G25KT 4000 -SHRA BKN015TCU
cycle: 2

Station Type Date Time Source
LFBD TAF 2018/12/16 18:21 UTC NOAA

TAF TAF LFBD 161700Z 1618/1724 26008KT 9999 BKN025 TX13/1712Z TN07/1707Z
TEMPO 1618/1712 28015G25KT 4000 -SHRA BKN015TCU PROB30 1722/1724 BKN007


Example: see airport list